createdAt,value
2018-01-25T00:01:02.199Z,30.50
2018-01-25T00:03:31.289Z,27.23
2018-01-25T00:05:59.516Z,29.83
2018-01-25T00:08:28.556Z,32.47
2018-01-25T00:10:56.823Z,31.27
2018-01-25T00:13:25.069Z,32.03
2018-01-25T00:15:53.332Z,28.23
2018-01-25T00:18:21.616Z,31.87
2018-01-25T00:20:49.889Z,32.30
2018-01-25T00:23:18.351Z,30.73
2018-01-25T00:25:47.416Z,33.43
2018-01-25T00:28:15.733Z,28.40
2018-01-25T00:30:43.972Z,28.63
2018-01-25T00:33:13.004Z,31.63
2018-01-25T00:35:41.292Z,30.53
2018-01-25T00:38:09.532Z,31.53
2018-01-25T00:40:38.624Z,28.23
2018-01-25T00:43:07.772Z,27.13
2018-01-25T00:45:36.049Z,28.43
2018-01-25T00:48:04.356Z,29.13
2018-01-25T00:50:32.724Z,31.40
2018-01-25T00:53:01.070Z,28.93
2018-01-25T00:55:29.409Z,31.50
2018-01-25T00:57:58.404Z,31.90
2018-01-25T01:00:27.465Z,28.13
2018-01-25T01:02:55.752Z,30.47
2018-01-25T01:05:24.045Z,31.90
2018-01-25T01:07:52.281Z,32.73
2018-01-25T01:10:20.808Z,34.27
2018-01-25T01:12:49.899Z,33.40
2018-01-25T01:15:19.151Z,33.90
2018-01-25T01:17:47.392Z,32.87
2018-01-25T01:20:15.656Z,28.50
2018-01-25T01:22:44.696Z,27.60
2018-01-25T01:25:13.008Z,27.43
2018-01-25T01:27:44.481Z,28.20
2018-01-25T01:30:13.490Z,27.17
2018-01-25T01:32:41.785Z,26.97
2018-01-25T01:35:10.816Z,26.87
2018-01-25T01:37:39.084Z,28.70
2018-01-25T01:40:07.377Z,27.30
2018-01-25T01:42:36.436Z,29.17
2018-01-25T01:45:04.700Z,27.07
2018-01-25T01:47:32.945Z,27.03
2018-01-25T01:50:01.986Z,28.50
2018-01-25T01:52:30.229Z,29.93
2018-01-25T01:54:58.528Z,28.00
2018-01-25T01:57:26.882Z,28.10
2018-01-25T01:59:55.971Z,31.60
2018-01-25T02:02:24.245Z,33.27
2018-01-25T02:04:52.559Z,32.70
2018-01-25T02:07:20.797Z,32.17
2018-01-25T02:09:49.887Z,28.43
2018-01-25T02:12:18.902Z,34.17
2018-01-25T02:14:47.128Z,33.70
2018-01-25T02:17:15.429Z,33.63
2018-01-25T02:19:44.457Z,32.97
2018-01-25T02:22:13.465Z,32.70
2018-01-25T02:24:42.512Z,29.80
2018-01-25T02:27:11.530Z,28.27
2018-01-25T02:29:40.553Z,30.97
2018-01-25T02:32:08.829Z,30.57
2018-01-25T02:34:37.832Z,24.43
2018-01-25T02:37:06.120Z,28.73
2018-01-25T02:39:34.425Z,28.23
2018-01-25T02:42:03.690Z,28.77
2018-01-25T02:44:31.952Z,24.63
2018-01-25T02:47:00.225Z,29.80
2018-01-25T02:49:28.466Z,27.00
2018-01-25T02:51:56.756Z,28.67
2018-01-25T02:54:25.033Z,25.43
2018-01-25T02:56:53.308Z,26.47
2018-01-25T02:59:21.812Z,28.90
2018-01-25T03:01:50.343Z,28.17
2018-01-25T03:04:18.600Z,26.53
2018-01-25T03:06:46.842Z,27.77
2018-01-25T03:09:15.117Z,29.03
2018-01-25T03:11:44.116Z,29.33
2018-01-25T03:14:12.365Z,28.13
2018-01-25T03:16:40.668Z,25.83
2018-01-25T03:19:08.912Z,27.50
2018-01-25T03:21:37.166Z,28.47
2018-01-25T03:24:06.257Z,29.97
2018-01-25T03:26:35.324Z,27.00
2018-01-25T03:29:04.316Z,26.50
2018-01-25T03:31:32.720Z,30.53
2018-01-25T03:34:01.006Z,26.80
2018-01-25T03:36:30.055Z,29.53
2018-01-25T03:38:58.324Z,29.37
2018-01-25T03:41:26.600Z,29.73
2018-01-25T03:43:54.849Z,29.97
2018-01-25T03:46:23.956Z,25.50
2018-01-25T03:48:52.255Z,30.17
2018-01-25T03:51:20.609Z,29.93
2018-01-25T03:53:48.908Z,30.33
2018-01-25T03:56:17.452Z,29.60
2018-01-25T03:58:46.636Z,30.30
2018-01-25T04:01:14.908Z,29.20
2018-01-25T04:03:43.948Z,30.20
2018-01-25T04:06:12.312Z,31.77
2018-01-25T04:08:40.573Z,32.07
2018-01-25T04:11:09.642Z,27.67
2018-01-25T04:13:38.396Z,29.87
2018-01-25T04:16:06.656Z,29.33
2018-01-25T04:18:34.916Z,25.87
2018-01-25T04:21:03.196Z,27.93
2018-01-25T04:23:32.232Z,29.73
2018-01-25T04:26:01.246Z,36.80
2018-01-25T04:28:29.480Z,35.13
2018-01-25T04:30:57.789Z,34.37
2018-01-25T04:33:26.046Z,31.33
2018-01-25T04:35:54.288Z,34.87
2018-01-25T04:38:22.558Z,28.97
2018-01-25T04:40:50.800Z,28.47
2018-01-25T04:43:19.038Z,29.27
2018-01-25T04:45:47.316Z,29.67
2018-01-25T04:48:15.567Z,27.10
2018-01-25T04:50:43.848Z,27.50
2018-01-25T04:53:13.380Z,26.93
2018-01-25T04:55:41.617Z,25.10
2018-01-25T04:58:10.681Z,27.57
2018-01-25T05:00:39.011Z,27.17
2018-01-25T05:03:07.308Z,27.03
2018-01-25T05:05:35.552Z,28.00
2018-01-25T05:08:03.853Z,29.43
2018-01-25T05:10:32.128Z,28.73
2018-01-25T05:13:00.404Z,28.00
2018-01-25T05:15:28.760Z,28.63
2018-01-25T05:17:57.042Z,28.87
2018-01-25T05:20:25.309Z,26.73
2018-01-25T05:22:53.600Z,26.93
2018-01-25T05:25:21.865Z,29.00
2018-01-25T05:27:50.325Z,24.60
2018-01-25T05:30:18.590Z,26.27
2018-01-25T05:32:46.870Z,27.17
2018-01-25T05:35:15.156Z,27.53
2018-01-25T05:37:44.297Z,24.77
2018-01-25T05:40:12.561Z,27.00
2018-01-25T05:42:40.965Z,27.03
2018-01-25T05:45:09.267Z,24.70
2018-01-25T05:47:37.544Z,25.50
2018-01-25T05:50:05.781Z,26.27
2018-01-25T05:52:34.044Z,25.17
2018-01-25T05:55:03.124Z,26.90
2018-01-25T05:57:31.355Z,26.30
2018-01-25T05:59:59.689Z,23.60
2018-01-25T06:02:28.710Z,25.60
2018-01-25T06:04:56.960Z,22.00
2018-01-25T06:07:25.995Z,22.60
2018-01-25T06:09:54.308Z,23.93
2018-01-25T06:12:22.581Z,22.17
2018-01-25T06:14:50.860Z,23.30
2018-01-25T06:17:19.348Z,25.20
2018-01-25T06:19:47.616Z,24.50
2018-01-25T06:22:16.088Z,25.90
2018-01-25T06:24:44.332Z,22.63
2018-01-25T06:27:12.624Z,28.53
2018-01-25T06:29:41.028Z,25.93
2018-01-25T06:32:09.294Z,24.10
2018-01-25T06:34:37.539Z,25.93
2018-01-25T06:37:05.891Z,26.60
2018-01-25T06:39:34.169Z,26.97
2018-01-25T06:42:03.168Z,26.07
2018-01-25T06:44:31.696Z,24.10
2018-01-25T06:47:00.014Z,24.23
2018-01-25T06:49:29.048Z,27.57
2018-01-25T06:51:57.344Z,24.27
2018-01-25T06:54:25.849Z,26.30
2018-01-25T06:56:54.136Z,22.87
2018-01-25T06:59:23.153Z,26.20
2018-01-25T07:01:51.396Z,27.20
2018-01-25T07:04:19.676Z,26.73
2018-01-25T07:06:48.745Z,26.57
2018-01-25T07:09:16.997Z,25.87
2018-01-25T07:11:45.237Z,25.97
2018-01-25T07:14:13.842Z,26.33
2018-01-25T07:16:43.587Z,27.27
2018-01-25T07:19:11.945Z,24.80
2018-01-25T07:21:40.276Z,24.23
2018-01-25T07:24:08.590Z,26.13
2018-01-25T07:26:37.232Z,27.00
2018-01-25T07:29:05.597Z,26.67
2018-01-25T07:31:33.896Z,28.27
2018-01-25T07:34:02.471Z,24.80
2018-01-25T07:36:31.000Z,27.47
2018-01-25T07:38:59.711Z,27.30
2018-01-25T07:41:28.176Z,26.43
2018-01-25T07:43:58.074Z,27.33
2018-01-25T07:46:26.338Z,24.83
2018-01-25T07:48:54.585Z,26.00
2018-01-25T07:51:23.724Z,24.30
2018-01-25T07:53:52.030Z,23.70
2018-01-25T07:56:20.427Z,22.83
2018-01-25T07:58:48.723Z,21.23
2018-01-25T08:01:16.971Z,23.53
2018-01-25T08:03:45.406Z,22.00
2018-01-25T08:06:13.993Z,21.60
2018-01-25T08:08:42.327Z,21.90
2018-01-25T08:11:10.576Z,22.00
2018-01-25T08:13:39.836Z,21.80
2018-01-25T08:16:13.825Z,21.73
2018-01-25T08:18:42.306Z,22.87
2018-01-25T08:21:10.582Z,20.87
2018-01-25T08:23:39.588Z,22.07
2018-01-25T08:26:07.869Z,22.07
2018-01-25T08:28:36.214Z,23.63
2018-01-25T08:31:04.554Z,22.93
2018-01-25T08:33:33.017Z,22.40
2018-01-25T08:36:01.276Z,21.33
2018-01-25T08:38:29.598Z,22.90
2018-01-25T08:40:59.372Z,22.50
2018-01-25T08:43:27.830Z,22.00
2018-01-25T08:45:57.852Z,22.37
2018-01-25T08:48:27.062Z,23.63
2018-01-25T08:50:55.470Z,23.03
2018-01-25T08:53:23.700Z,22.80
2018-01-25T08:55:52.757Z,20.47
2018-01-25T08:58:21.000Z,21.17
2018-01-25T09:00:49.303Z,22.73
2018-01-25T09:03:17.617Z,22.63
2018-01-25T09:05:45.871Z,21.97
2018-01-25T09:08:14.129Z,20.20
2018-01-25T09:10:42.416Z,20.67
2018-01-25T09:13:10.752Z,22.50
2018-01-25T09:15:39.038Z,21.03
2018-01-25T09:18:07.460Z,20.27
2018-01-25T09:20:35.845Z,19.60
2018-01-25T09:23:04.683Z,21.00
2018-01-25T09:25:33.009Z,20.70
2018-01-25T09:28:01.372Z,19.47
2018-01-25T09:30:29.670Z,17.87
2018-01-25T09:32:57.937Z,20.43
2018-01-25T09:35:26.203Z,18.10
2018-01-25T09:37:54.547Z,16.73
2018-01-25T09:40:23.640Z,18.77
2018-01-25T09:42:52.835Z,18.13
2018-01-25T09:45:21.117Z,16.53
2018-01-25T09:47:56.995Z,16.70
2018-01-25T09:50:25.996Z,18.87
2018-01-25T09:52:54.373Z,18.07
2018-01-25T09:55:24.029Z,18.07
2018-01-25T09:57:52.301Z,17.80
2018-01-25T10:00:20.556Z,17.53
2018-01-25T10:02:48.832Z,16.97
2018-01-25T10:05:17.088Z,18.33
2018-01-25T10:07:45.377Z,18.40
2018-01-25T10:10:13.704Z,18.93
2018-01-25T10:12:42.748Z,18.50
2018-01-25T10:15:11.018Z,19.10
2018-01-25T10:17:40.210Z,17.73
2018-01-25T10:20:08.531Z,18.37
2018-01-25T10:22:36.820Z,18.20
2018-01-25T10:25:05.365Z,18.13
2018-01-25T10:27:33.622Z,17.67
2018-01-25T10:30:02.723Z,17.90
2018-01-25T10:32:31.735Z,16.07
2018-01-25T10:35:00.095Z,16.70
2018-01-25T10:37:28.342Z,16.53
2018-01-25T10:39:56.658Z,15.80
2018-01-25T10:42:24.913Z,17.97
2018-01-25T10:44:53.171Z,15.30
2018-01-25T10:47:22.214Z,18.13
2018-01-25T10:49:51.321Z,17.23
2018-01-25T10:52:19.659Z,15.87
2018-01-25T10:54:47.976Z,15.97
2018-01-25T10:57:17.016Z,16.83
2018-01-25T10:59:45.477Z,15.43
2018-01-25T11:02:13.953Z,15.37
2018-01-25T11:04:43.418Z,15.70
2018-01-25T11:07:12.691Z,15.13
2018-01-25T11:09:41.029Z,16.30
2018-01-25T11:12:09.314Z,17.03
2018-01-25T11:14:37.605Z,15.70
2018-01-25T11:17:05.881Z,15.33
2018-01-25T11:19:34.150Z,15.93
2018-01-25T11:22:02.413Z,14.93
2018-01-25T11:24:30.732Z,14.00
2018-01-25T11:26:58.972Z,15.30
2018-01-25T11:29:27.276Z,15.77
2018-01-25T11:31:55.824Z,14.87
2018-01-25T11:34:24.077Z,15.00
2018-01-25T11:36:53.114Z,13.93
2018-01-25T11:39:21.458Z,14.83
2018-01-25T11:41:49.739Z,14.80
2018-01-25T11:44:18.008Z,15.53
2018-01-25T11:46:46.465Z,15.63
2018-01-25T11:49:15.496Z,14.40
2018-01-25T11:51:43.852Z,14.60
2018-01-25T11:54:13.018Z,14.53
2018-01-25T11:56:41.289Z,13.63
2018-01-25T11:59:09.555Z,13.30
2018-01-25T12:01:37.833Z,15.10
2018-01-25T12:04:06.118Z,14.87
2018-01-25T12:06:34.500Z,14.93
2018-01-25T12:09:03.074Z,12.40
2018-01-25T12:11:31.312Z,13.63
2018-01-25T12:13:59.620Z,12.60
2018-01-25T12:16:27.890Z,13.07
2018-01-25T12:18:56.204Z,11.70
2018-01-25T12:21:24.676Z,11.53
2018-01-25T12:23:52.995Z,12.43
2018-01-25T12:26:23.128Z,11.93
2018-01-25T12:28:51.726Z,12.23
2018-01-25T12:31:20.105Z,12.57
2018-01-25T12:33:48.452Z,12.20
2018-01-25T12:36:17.060Z,12.30
2018-01-25T12:38:46.052Z,12.30
2018-01-25T12:41:14.789Z,12.90
2018-01-25T12:43:43.443Z,13.53
2018-01-25T12:46:11.878Z,14.37
2018-01-25T12:48:40.287Z,13.73
2018-01-25T12:51:08.648Z,13.53
2018-01-25T12:53:38.183Z,12.50
2018-01-25T12:56:06.645Z,13.83
2018-01-25T12:58:35.088Z,13.90
2018-01-25T13:01:04.040Z,13.93
2018-01-25T13:03:32.597Z,13.00
2018-01-25T13:06:01.622Z,12.63
2018-01-25T13:08:29.983Z,13.37
2018-01-25T13:10:58.393Z,12.83
2018-01-25T13:13:26.706Z,13.70
2018-01-25T13:15:56.016Z,13.37
2018-01-25T13:18:24.467Z,12.57
2018-01-25T13:20:53.063Z,12.77
2018-01-25T13:23:21.920Z,12.53
2018-01-25T13:25:50.329Z,12.33
2018-01-25T13:28:19.040Z,12.33
2018-01-25T13:30:47.428Z,11.07
2018-01-25T13:33:21.230Z,11.70
2018-01-25T13:35:49.596Z,11.57
2018-01-25T13:38:17.876Z,10.90
2018-01-25T13:40:46.142Z,11.67
2018-01-25T13:43:14.533Z,12.10
2018-01-25T13:45:43.516Z,12.03
2018-01-25T13:48:12.791Z,10.87
2018-01-25T13:50:41.160Z,10.83
2018-01-25T13:53:09.385Z,11.10
2018-01-25T13:55:37.680Z,11.00
2018-01-25T13:58:06.017Z,11.30
2018-01-25T14:00:34.313Z,10.50
2018-01-25T14:03:02.620Z,11.50
2018-01-25T14:05:30.953Z,10.50
2018-01-25T14:07:59.302Z,11.23
2018-01-25T14:10:27.560Z,10.67
2018-01-25T14:12:55.940Z,11.73
2018-01-25T14:15:24.325Z,11.53
2018-01-25T14:17:52.633Z,10.73
2018-01-25T14:20:20.916Z,12.27
2018-01-25T14:22:50.002Z,12.27
2018-01-25T14:25:19.180Z,12.13
2018-01-25T14:27:48.312Z,12.03
2018-01-25T14:30:17.384Z,11.87
2018-01-25T14:32:45.651Z,12.10
2018-01-25T14:35:13.944Z,13.30
2018-01-25T14:37:42.238Z,11.30
2018-01-25T14:40:10.491Z,12.40
2018-01-25T14:42:39.708Z,11.70
2018-01-25T14:45:07.988Z,11.73
2018-01-25T14:47:36.237Z,12.80
2018-01-25T14:50:04.532Z,13.20
2018-01-25T14:52:33.606Z,12.60
2018-01-25T14:55:01.853Z,12.33
2018-01-25T14:57:30.153Z,12.17
2018-01-25T14:59:58.429Z,13.23
2018-01-25T15:02:26.740Z,13.30
2018-01-25T15:04:55.900Z,12.20
2018-01-25T15:07:24.178Z,13.03
2018-01-25T15:09:52.528Z,12.73
2018-01-25T15:12:20.836Z,13.13
2018-01-25T15:14:49.140Z,13.80
2018-01-25T15:17:18.173Z,12.93
2018-01-25T15:19:46.502Z,14.33
2018-01-25T15:22:14.756Z,13.03
2018-01-25T15:24:43.037Z,13.17
2018-01-25T15:27:17.043Z,12.93
2018-01-25T15:29:45.287Z,12.47
2018-01-25T15:32:13.540Z,13.07
2018-01-25T15:34:42.713Z,13.37
2018-01-25T15:37:10.996Z,12.63
2018-01-25T15:39:39.397Z,12.67
2018-01-25T15:42:07.797Z,13.73
2018-01-25T15:44:36.153Z,12.87
2018-01-25T15:47:04.412Z,13.00
2018-01-25T15:49:33.535Z,12.47
2018-01-25T15:52:02.676Z,13.20
2018-01-25T15:54:33.437Z,12.40
2018-01-25T15:57:01.785Z,12.47
2018-01-25T15:59:30.056Z,12.17
2018-01-25T16:01:58.316Z,12.73
2018-01-25T16:04:26.582Z,12.37
2018-01-25T16:06:55.530Z,12.30
2018-01-25T16:09:24.438Z,13.50
2018-01-25T16:11:53.550Z,13.60
2018-01-25T16:14:22.595Z,13.80
2018-01-25T16:16:50.872Z,12.77
2018-01-25T16:19:19.225Z,12.43
2018-01-25T16:21:47.494Z,12.80
2018-01-25T16:24:16.351Z,12.70
2018-01-25T16:26:44.953Z,13.37
2018-01-25T16:29:14.083Z,12.30
2018-01-25T16:31:42.669Z,12.83
2018-01-25T16:34:11.008Z,12.07
2018-01-25T16:36:39.285Z,11.27
2018-01-25T16:39:07.608Z,12.43
2018-01-25T16:41:35.956Z,11.97
2018-01-25T16:44:04.224Z,13.10
2018-01-25T16:46:32.525Z,11.93
2018-01-25T16:49:00.894Z,13.07
2018-01-25T16:51:29.156Z,13.03
2018-01-25T16:53:57.596Z,13.40
2018-01-25T16:56:25.953Z,12.20
2018-01-25T16:58:54.205Z,12.07
2018-01-25T17:01:22.658Z,12.73
2018-01-25T17:03:51.279Z,13.90
2018-01-25T17:06:19.529Z,13.87
2018-01-25T17:08:47.806Z,13.63
2018-01-25T17:11:16.266Z,12.90
2018-01-25T17:13:45.377Z,13.00
2018-01-25T17:16:13.694Z,13.17
2018-01-25T17:18:42.132Z,12.97
2018-01-25T17:21:10.442Z,13.10
2018-01-25T17:23:38.990Z,12.80
2018-01-25T17:26:08.042Z,13.20
2018-01-25T17:28:36.299Z,13.00
2018-01-25T17:31:04.706Z,14.00
2018-01-25T17:33:33.039Z,13.73
2018-01-25T17:36:01.445Z,14.90
2018-01-25T17:38:29.915Z,14.10
2018-01-25T17:40:58.343Z,13.17
2018-01-25T17:43:26.730Z,13.03
2018-01-25T17:45:55.111Z,14.63
2018-01-25T17:48:23.554Z,13.40
2018-01-25T17:50:51.873Z,13.23
2018-01-25T17:53:20.149Z,13.27
2018-01-25T17:55:48.513Z,12.73
2018-01-25T17:58:16.936Z,14.10
2018-01-25T18:00:45.946Z,13.63
2018-01-25T18:03:14.280Z,13.77
2018-01-25T18:05:42.602Z,13.30
2018-01-25T18:08:11.072Z,14.97
2018-01-25T18:10:39.354Z,13.83
2018-01-25T18:13:07.631Z,13.53
2018-01-25T18:15:35.909Z,14.73
2018-01-25T18:18:04.188Z,14.60
2018-01-25T18:20:32.529Z,15.83
2018-01-25T18:23:00.912Z,14.93
2018-01-25T18:25:29.241Z,15.17
2018-01-25T18:27:57.502Z,14.70
2018-01-25T18:30:25.856Z,15.17
2018-01-25T18:32:54.175Z,14.87
2018-01-25T18:35:22.460Z,15.47
2018-01-25T18:37:51.005Z,16.20
2018-01-25T18:40:19.281Z,14.53
2018-01-25T18:42:47.817Z,15.80
2018-01-25T18:45:16.883Z,14.57
2018-01-25T18:47:47.649Z,14.40
2018-01-25T18:50:15.991Z,15.97
2018-01-25T18:52:44.474Z,16.47
2018-01-25T18:55:12.728Z,14.43
2018-01-25T18:57:41.139Z,15.23
2018-01-25T19:00:09.592Z,15.23
2018-01-25T19:02:38.241Z,14.90
2018-01-25T19:05:07.433Z,15.10
2018-01-25T19:07:36.534Z,15.27
2018-01-25T19:10:05.384Z,15.73
2018-01-25T19:12:35.555Z,14.80
2018-01-25T19:15:04.113Z,14.40
2018-01-25T19:17:32.780Z,13.70
2018-01-25T19:20:01.092Z,14.23
2018-01-25T19:22:30.049Z,14.73
2018-01-25T19:24:58.461Z,15.20
2018-01-25T19:27:27.258Z,14.43
2018-01-25T19:29:55.850Z,16.20
2018-01-25T19:32:25.083Z,15.30
2018-01-25T19:34:53.405Z,14.87
2018-01-25T19:37:22.581Z,14.97
2018-01-25T19:39:51.515Z,16.37
2018-01-25T19:42:20.818Z,15.10
2018-01-25T19:44:49.279Z,14.77
2018-01-25T19:47:17.539Z,16.27
2018-01-25T19:49:45.927Z,14.53
2018-01-25T19:52:14.652Z,15.13
2018-01-25T19:54:43.681Z,15.83
2018-01-25T19:57:12.519Z,15.03
2018-01-25T19:59:41.800Z,14.07
2018-01-25T20:02:10.809Z,15.20
2018-01-25T20:04:39.643Z,15.73
2018-01-25T20:07:07.958Z,16.70
2018-01-25T20:09:36.349Z,16.27
2018-01-25T20:12:04.605Z,17.83
2018-01-25T20:14:33.774Z,18.50
2018-01-25T20:17:02.309Z,17.97
2018-01-25T20:19:31.407Z,17.57
2018-01-25T20:22:00.355Z,15.37
2018-01-25T20:24:29.632Z,17.00
2018-01-25T20:26:58.053Z,16.50
2018-01-25T20:29:28.077Z,16.00
2018-01-25T20:31:56.513Z,16.70
2018-01-25T20:34:24.977Z,17.00
2018-01-25T20:36:54.098Z,16.13
2018-01-25T20:39:22.580Z,16.73
2018-01-25T20:41:50.820Z,17.70
2018-01-25T20:44:19.129Z,16.77
2018-01-25T20:46:47.401Z,17.67
2018-01-25T20:49:15.935Z,17.70
2018-01-25T20:51:44.470Z,17.37
2018-01-25T20:54:12.742Z,17.57
2018-01-25T20:56:40.985Z,17.50
2018-01-25T20:59:09.287Z,18.83
2018-01-25T21:01:37.619Z,17.17
2018-01-25T21:04:07.352Z,16.63
2018-01-25T21:06:35.846Z,17.07
2018-01-25T21:09:04.126Z,17.30
2018-01-25T21:11:32.429Z,18.17
2018-01-25T21:14:01.154Z,17.57
2018-01-25T21:16:29.500Z,18.63
2018-01-25T21:18:58.693Z,17.33
2018-01-25T21:21:26.982Z,16.93
2018-01-25T21:23:55.341Z,18.00
2018-01-25T21:26:23.697Z,18.93
2018-01-25T21:28:52.065Z,18.70
2018-01-25T21:31:20.359Z,17.50
2018-01-25T21:33:48.627Z,18.10
2018-01-25T21:36:17.983Z,18.07
2018-01-25T21:38:46.252Z,19.77
2018-01-25T21:41:14.688Z,19.33
2018-01-25T21:43:43.297Z,17.77
2018-01-25T21:46:11.836Z,17.03
2018-01-25T21:48:40.994Z,17.43
2018-01-25T21:51:09.300Z,17.27
2018-01-25T21:53:38.378Z,17.93
2018-01-25T21:56:06.636Z,16.60
2018-01-25T21:58:35.034Z,15.63
2018-01-25T22:01:03.312Z,16.33
2018-01-25T22:03:31.552Z,16.37
2018-01-25T22:06:01.342Z,17.90
2018-01-25T22:08:29.640Z,18.67
2018-01-25T22:10:57.929Z,18.17
2018-01-25T22:13:26.292Z,16.57
2018-01-25T22:15:54.589Z,17.70
2018-01-25T22:18:22.899Z,17.07
2018-01-25T22:20:51.124Z,16.53
2018-01-25T22:23:19.486Z,16.30
2018-01-25T22:25:47.724Z,17.13
2018-01-25T22:28:16.024Z,16.70
2018-01-25T22:30:44.372Z,15.63
2018-01-25T22:33:12.642Z,15.90
2018-01-25T22:35:40.901Z,15.77
2018-01-25T22:38:09.238Z,16.80
2018-01-25T22:40:37.572Z,17.63
2018-01-25T22:43:05.844Z,17.90
2018-01-25T22:45:34.115Z,16.70
2018-01-25T22:50:34.079Z,15.80
2018-01-25T22:53:03.133Z,17.23
2018-01-25T22:55:31.395Z,16.33
2018-01-25T22:57:59.757Z,16.40
2018-01-25T23:00:39.907Z,15.63
2018-01-25T23:03:08.924Z,15.83
2018-01-25T23:05:37.176Z,16.43
2018-01-25T23:08:06.727Z,16.37
2018-01-25T23:10:35.116Z,17.53
2018-01-25T23:13:03.381Z,16.40
2018-01-25T23:15:31.680Z,16.77
2018-01-25T23:17:59.964Z,16.93
2018-01-25T23:20:28.976Z,16.10
2018-01-25T23:22:57.250Z,16.53
2018-01-25T23:25:25.500Z,17.17
2018-01-25T23:27:54.520Z,17.33
2018-01-25T23:30:22.817Z,17.00
2018-01-25T23:32:51.072Z,16.57
2018-01-25T23:35:20.109Z,17.07
2018-01-25T23:37:48.550Z,16.30
2018-01-25T23:40:17.560Z,16.10
2018-01-25T23:42:45.820Z,16.43
2018-01-25T23:45:14.128Z,16.17
2018-01-25T23:47:42.388Z,17.53
2018-01-25T23:50:10.679Z,17.17
2018-01-25T23:52:39.007Z,17.53
2018-01-25T23:55:07.249Z,17.97
2018-01-25T23:57:35.492Z,17.70
